Schofer, Pennsylvania
Current Conditions -  °F | °C
As of 11:54 PM on Thursday 27 Nov 2014 (Local Time) from KRDG Reporting Station
Broken Clouds Broken Clouds  
Wind Chill: 30°   Ceiling: 8000
Heat Index: 30°   Visibility: 10mi
Dew Point: 26°   Wind: 0mph
Humidity: 85%   Direction: NA
Pressure: 30.1"   Gusts: NA
Location:  40.5336°N, 75.7775°W
Report Text: KRDG 280454Z AUTO 00000KT 10SM SCT065 BKN080 M01/M03 A3010 RMK AO2 SLP200 T10111033 400331028
Loading
Personal Weather Stations






























Interactive Weather Map New forecast layout! Learn more

10-Day Weather Forecast

Advertisements
Track Severe Weather on mobile